sensor_id;sensor_type;location;lat;lon;timestamp;P1;durP1;ratioP1;P2;durP2;ratioP2
38487;SDS011;57384;51.986;4.458;2022-12-10T00:01:48;32.25;;;7.35;;
38487;SDS011;57384;51.986;4.458;2022-12-10T00:08:07;22.90;;;5.60;;
38487;SDS011;57384;51.986;4.458;2022-12-10T00:17:47;25.85;;;6.03;;
38487;SDS011;57384;51.986;4.458;2022-12-10T00:20:38;21.55;;;5.68;;
38487;SDS011;57384;51.986;4.458;2022-12-10T00:23:28;17.98;;;5.38;;
38487;SDS011;57384;51.986;4.458;2022-12-10T00:26:38;24.23;;;7.30;;
38487;SDS011;57384;51.986;4.458;2022-12-10T00:29:25;22.67;;;6.43;;
38487;SDS011;57384;51.986;4.458;2022-12-10T00:32:30;24.17;;;6.18;;
38487;SDS011;57384;51.986;4.458;2022-12-10T00:35:24;17.50;;;4.30;;
38487;SDS011;57384;51.986;4.458;2022-12-10T00:41:49;21.38;;;5.88;;
38487;SDS011;57384;51.986;4.458;2022-12-10T00:44:33;17.77;;;5.38;;
38487;SDS011;57384;51.986;4.458;2022-12-10T00:47:28;17.70;;;5.07;;
38487;SDS011;57384;51.986;4.458;2022-12-10T00:50:15;18.80;;;6.03;;
38487;SDS011;57384;51.986;4.458;2022-12-10T00:52:59;22.95;;;5.43;;
38487;SDS011;57384;51.986;4.458;2022-12-10T00:55:43;22.38;;;6.53;;
38487;SDS011;57384;51.986;4.458;2022-12-10T00:58:28;20.45;;;5.43;;
38487;SDS011;57384;51.986;4.458;2022-12-10T01:04:45;23.60;;;6.47;;
38487;SDS011;57384;51.986;4.458;2022-12-10T01:08:02;28.20;;;8.07;;
38487;SDS011;57384;51.986;4.458;2022-12-10T01:11:03;24.67;;;6.82;;
38487;SDS011;57384;51.986;4.458;2022-12-10T01:13:54;25.88;;;6.57;;
38487;SDS011;57384;51.986;4.458;2022-12-10T01:17:05;19.42;;;5.43;;
38487;SDS011;57384;51.986;4.458;2022-12-10T01:26:45;17.67;;;5.38;;
38487;SDS011;57384;51.986;4.458;2022-12-10T01:29:52;25.17;;;7.05;;
38487;SDS011;57384;51.986;4.458;2022-12-10T01:32:47;32.50;;;6.97;;
38487;SDS011;57384;51.986;4.458;2022-12-10T01:39:11;29.70;;;7.68;;
38487;SDS011;57384;51.986;4.458;2022-12-10T01:45:26;30.48;;;9.05;;
38487;SDS011;57384;51.986;4.458;2022-12-10T01:57:07;23.48;;;6.88;;
38487;SDS011;57384;51.986;4.458;2022-12-10T02:00:11;22.08;;;6.95;;
38487;SDS011;57384;51.986;4.458;2022-12-10T02:16:47;27.83;;;7.45;;
38487;SDS011;57384;51.986;4.458;2022-12-10T02:30:17;23.85;;;6.15;;
38487;SDS011;57384;51.986;4.458;2022-12-10T12:35:06;17.80;;;3.60;;
38487;SDS011;57384;51.986;4.458;2022-12-10T12:38:14;19.35;;;4.50;;
38487;SDS011;57384;51.986;4.458;2022-12-10T12:44:39;24.08;;;5.05;;
38487;SDS011;57384;51.986;4.458;2022-12-10T12:47:42;17.25;;;4.28;;
38487;SDS011;57384;51.986;4.458;2022-12-10T12:50:28;24.33;;;5.47;;
38487;SDS011;57384;51.986;4.458;2022-12-10T12:53:22;20.10;;;4.18;;
38487;SDS011;57384;51.986;4.458;2022-12-10T12:56:16;19.85;;;3.92;;
38487;SDS011;57384;51.986;4.458;2022-12-10T12:59:39;20.77;;;4.78;;
38487;SDS011;57384;51.986;4.458;2022-12-10T13:05:43;15.60;;;3.33;;
38487;SDS011;57384;51.986;4.458;2022-12-10T13:11:17;14.50;;;2.97;;
38487;SDS011;57384;51.986;4.458;2022-12-10T13:14:31;19.70;;;4.97;;
38487;SDS011;57384;51.986;4.458;2022-12-10T13:17:36;19.52;;;5.50;;
38487;SDS011;57384;51.986;4.458;2022-12-10T13:21:15;23.70;;;5.20;;
38487;SDS011;57384;51.986;4.458;2022-12-10T13:23:46;20.73;;;4.20;;
38487;SDS011;57384;51.986;4.458;2022-12-10T13:26:35;20.73;;;3.92;;
38487;SDS011;57384;51.986;4.458;2022-12-10T13:29:26;22.13;;;5.22;;
38487;SDS011;57384;51.986;4.458;2022-12-10T13:35:41;19.85;;;4.82;;
38487;SDS011;57384;51.986;4.458;2022-12-10T13:38:55;16.48;;;3.88;;
38487;SDS011;57384;51.986;4.458;2022-12-10T13:41:42;21.58;;;6.22;;
38487;SDS011;57384;51.986;4.458;2022-12-10T13:45:02;21.30;;;4.05;;
38487;SDS011;57384;51.986;4.458;2022-12-10T13:51:17;20.45;;;4.28;;
38487;SDS011;57384;51.986;4.458;2022-12-10T14:00:06;11.63;;;3.67;;
38487;SDS011;57384;51.986;4.458;2022-12-10T14:06:35;24.23;;;4.68;;
38487;SDS011;57384;51.986;4.458;2022-12-10T14:09:24;25.85;;;6.13;;
38487;SDS011;57384;51.986;4.458;2022-12-10T14:12:18;24.73;;;5.03;;
38487;SDS011;57384;51.986;4.458;2022-12-10T14:15:22;23.67;;;5.82;;
38487;SDS011;57384;51.986;4.458;2022-12-10T14:18:10;23.33;;;4.70;;
38487;SDS011;57384;51.986;4.458;2022-12-10T14:20:58;24.95;;;5.50;;
38487;SDS011;57384;51.986;4.458;2022-12-10T14:23:48;23.00;;;5.72;;
38487;SDS011;57384;51.986;4.458;2022-12-10T14:26:33;25.90;;;5.57;;
38487;SDS011;57384;51.986;4.458;2022-12-10T14:29:27;25.15;;;5.10;;
38487;SDS011;57384;51.986;4.458;2022-12-10T14:32:19;25.50;;;5.53;;
38487;SDS011;57384;51.986;4.458;2022-12-10T14:35:15;17.38;;;5.47;;
38487;SDS011;57384;51.986;4.458;2022-12-10T14:38:03;27.23;;;5.95;;
38487;SDS011;57384;51.986;4.458;2022-12-10T14:40:58;19.92;;;5.68;;
38487;SDS011;57384;51.986;4.458;2022-12-10T14:43:50;30.15;;;6.75;;
38487;SDS011;57384;51.986;4.458;2022-12-10T14:46:37;23.63;;;4.88;;
38487;SDS011;57384;51.986;4.458;2022-12-10T14:49:25;14.30;;;4.25;;
38487;SDS011;57384;51.986;4.458;2022-12-10T14:52:19;24.45;;;6.18;;
38487;SDS011;57384;51.986;4.458;2022-12-10T14:58:41;28.90;;;7.45;;
38487;SDS011;57384;51.986;4.458;2022-12-10T15:01:33;26.02;;;6.43;;
38487;SDS011;57384;51.986;4.458;2022-12-10T15:04:22;27.52;;;6.40;;
38487;SDS011;57384;51.986;4.458;2022-12-10T15:10:14;16.15;;;4.25;;
38487;SDS011;57384;51.986;4.458;2022-12-10T15:13:21;18.60;;;5.00;;
38487;SDS011;57384;51.986;4.458;2022-12-10T15:19:43;26.10;;;6.13;;
38487;SDS011;57384;51.986;4.458;2022-12-10T15:23:05;21.48;;;6.88;;
38487;SDS011;57384;51.986;4.458;2022-12-10T15:26:22;28.70;;;7.45;;
38487;SDS011;57384;51.986;4.458;2022-12-10T15:29:29;21.60;;;5.20;;
38487;SDS011;57384;51.986;4.458;2022-12-10T15:32:24;25.67;;;7.05;;
38487;SDS011;57384;51.986;4.458;2022-12-10T15:35:15;23.85;;;6.18;;
38487;SDS011;57384;51.986;4.458;2022-12-10T15:38:00;27.55;;;5.95;;
38487;SDS011;57384;51.986;4.458;2022-12-10T15:44:38;25.48;;;7.00;;
38487;SDS011;57384;51.986;4.458;2022-12-10T15:47:46;33.63;;;8.75;;
38487;SDS011;57384;51.986;4.458;2022-12-10T15:50:37;26.75;;;7.93;;
38487;SDS011;57384;51.986;4.458;2022-12-10T15:53:28;22.88;;;6.68;;
38487;SDS011;57384;51.986;4.458;2022-12-10T15:56:20;29.80;;;7.63;;
38487;SDS011;57384;51.986;4.458;2022-12-10T16:02:39;27.58;;;7.50;;
38487;SDS011;57384;51.986;4.458;2022-12-10T16:05:40;26.63;;;7.18;;
38487;SDS011;57384;51.986;4.458;2022-12-10T16:08:28;28.75;;;7.70;;
38487;SDS011;57384;51.986;4.458;2022-12-10T16:14:24;29.70;;;7.53;;
38487;SDS011;57384;51.986;4.458;2022-12-10T16:17:37;32.72;;;7.90;;
38487;SDS011;57384;51.986;4.458;2022-12-10T16:20:25;31.02;;;7.90;;
38487;SDS011;57384;51.986;4.458;2022-12-10T16:23:13;25.05;;;7.05;;
38487;SDS011;57384;51.986;4.458;2022-12-10T16:25:57;27.38;;;6.75;;
38487;SDS011;57384;51.986;4.458;2022-12-10T16:28:46;30.75;;;6.50;;
38487;SDS011;57384;51.986;4.458;2022-12-10T16:31:48;30.38;;;7.57;;
38487;SDS011;57384;51.986;4.458;2022-12-10T16:34:35;21.08;;;5.72;;
38487;SDS011;57384;51.986;4.458;2022-12-10T16:37:22;34.25;;;9.07;;
38487;SDS011;57384;51.986;4.458;2022-12-10T16:40:22;36.80;;;7.65;;
38487;SDS011;57384;51.986;4.458;2022-12-10T16:43:18;34.53;;;7.85;;
38487;SDS011;57384;51.986;4.458;2022-12-10T16:46:08;29.75;;;7.88;;
38487;SDS011;57384;51.986;4.458;2022-12-10T16:48:57;39.90;;;8.95;;
38487;SDS011;57384;51.986;4.458;2022-12-10T16:52:02;27.73;;;6.78;;
38487;SDS011;57384;51.986;4.458;2022-12-10T16:54:49;37.95;;;8.48;;
38487;SDS011;57384;51.986;4.458;2022-12-10T16:57:40;34.45;;;9.25;;
38487;SDS011;57384;51.986;4.458;2022-12-10T17:00:25;33.08;;;8.05;;
38487;SDS011;57384;51.986;4.458;2022-12-10T17:03:10;29.20;;;8.80;;
38487;SDS011;57384;51.986;4.458;2022-12-10T17:05:59;31.50;;;8.70;;
38487;SDS011;57384;51.986;4.458;2022-12-10T17:08:46;24.35;;;7.43;;
38487;SDS011;57384;51.986;4.458;2022-12-10T17:11:38;37.10;;;8.57;;
38487;SDS011;57384;51.986;4.458;2022-12-10T17:14:30;26.80;;;7.55;;
38487;SDS011;57384;51.986;4.458;2022-12-10T17:17:21;20.45;;;6.75;;
38487;SDS011;57384;51.986;4.458;2022-12-10T17:20:10;34.30;;;7.95;;
38487;SDS011;57384;51.986;4.458;2022-12-10T17:23:02;25.98;;;7.53;;
38487;SDS011;57384;51.986;4.458;2022-12-10T17:25:57;25.83;;;7.25;;
38487;SDS011;57384;51.986;4.458;2022-12-10T17:28:41;30.20;;;7.80;;
38487;SDS011;57384;51.986;4.458;2022-12-10T17:31:25;30.17;;;7.97;;
38487;SDS011;57384;51.986;4.458;2022-12-10T17:34:12;29.67;;;7.40;;
38487;SDS011;57384;51.986;4.458;2022-12-10T17:36:56;25.73;;;6.95;;
38487;SDS011;57384;51.986;4.458;2022-12-10T17:39:40;27.27;;;6.38;;
38487;SDS011;57384;51.986;4.458;2022-12-10T17:42:25;32.13;;;6.63;;
38487;SDS011;57384;51.986;4.458;2022-12-10T17:45:10;21.73;;;5.55;;
38487;SDS011;57384;51.986;4.458;2022-12-10T17:47:56;23.23;;;5.40;;
38487;SDS011;57384;51.986;4.458;2022-12-10T17:50:44;18.73;;;4.93;;
38487;SDS011;57384;51.986;4.458;2022-12-10T17:53:32;20.27;;;4.95;;
38487;SDS011;57384;51.986;4.458;2022-12-10T17:56:17;18.27;;;4.72;;
38487;SDS011;57384;51.986;4.458;2022-12-10T17:59:03;16.17;;;3.33;;
38487;SDS011;57384;51.986;4.458;2022-12-10T18:01:47;13.70;;;3.67;;
38487;SDS011;57384;51.986;4.458;2022-12-10T18:04:31;20.60;;;3.03;;
38487;SDS011;57384;51.986;4.458;2022-12-10T18:07:16;12.00;;;3.65;;
38487;SDS011;57384;51.986;4.458;2022-12-10T18:10:05;13.75;;;3.78;;
38487;SDS011;57384;51.986;4.458;2022-12-10T18:12:54;15.77;;;4.03;;
38487;SDS011;57384;51.986;4.458;2022-12-10T18:15:39;12.77;;;3.40;;
38487;SDS011;57384;51.986;4.458;2022-12-10T18:18:24;14.77;;;3.92;;
38487;SDS011;57384;51.986;4.458;2022-12-10T18:21:08;12.90;;;4.88;;
38487;SDS011;57384;51.986;4.458;2022-12-10T18:23:56;24.13;;;5.88;;
38487;SDS011;57384;51.986;4.458;2022-12-10T18:26:41;20.27;;;6.18;;
38487;SDS011;57384;51.986;4.458;2022-12-10T18:29:26;29.92;;;6.85;;
38487;SDS011;57384;51.986;4.458;2022-12-10T18:32:16;19.50;;;5.57;;
38487;SDS011;57384;51.986;4.458;2022-12-10T18:35:00;25.13;;;6.55;;
38487;SDS011;57384;51.986;4.458;2022-12-10T18:37:45;22.50;;;6.15;;
38487;SDS011;57384;51.986;4.458;2022-12-10T18:40:32;22.52;;;5.82;;
38487;SDS011;57384;51.986;4.458;2022-12-10T18:43:16;18.08;;;5.07;;
38487;SDS011;57384;51.986;4.458;2022-12-10T18:46:04;21.38;;;5.57;;
38487;SDS011;57384;51.986;4.458;2022-12-10T18:48:48;18.77;;;4.93;;
38487;SDS011;57384;51.986;4.458;2022-12-10T18:51:32;20.02;;;5.15;;
38487;SDS011;57384;51.986;4.458;2022-12-10T18:54:16;19.35;;;4.40;;
38487;SDS011;57384;51.986;4.458;2022-12-10T18:57:06;15.88;;;4.20;;
38487;SDS011;57384;51.986;4.458;2022-12-10T18:59:55;11.20;;;3.63;;
38487;SDS011;57384;51.986;4.458;2022-12-10T19:02:39;15.57;;;3.72;;
38487;SDS011;57384;51.986;4.458;2022-12-10T19:05:23;19.73;;;4.10;;
38487;SDS011;57384;51.986;4.458;2022-12-10T19:08:10;14.00;;;3.95;;
38487;SDS011;57384;51.986;4.458;2022-12-10T19:10:56;15.95;;;4.25;;
38487;SDS011;57384;51.986;4.458;2022-12-10T19:13:40;15.05;;;3.70;;
38487;SDS011;57384;51.986;4.458;2022-12-10T19:16:25;13.45;;;4.05;;
38487;SDS011;57384;51.986;4.458;2022-12-10T19:19:10;21.30;;;5.38;;
38487;SDS011;57384;51.986;4.458;2022-12-10T19:21:55;14.93;;;4.60;;
38487;SDS011;57384;51.986;4.458;2022-12-10T19:24:39;15.90;;;3.63;;
38487;SDS011;57384;51.986;4.458;2022-12-10T19:27:35;16.52;;;4.78;;
38487;SDS011;57384;51.986;4.458;2022-12-10T19:30:23;18.05;;;5.53;;
38487;SDS011;57384;51.986;4.458;2022-12-10T19:33:09;16.33;;;4.50;;
38487;SDS011;57384;51.986;4.458;2022-12-10T19:35:53;14.93;;;4.22;;
38487;SDS011;57384;51.986;4.458;2022-12-10T19:38:37;14.43;;;5.07;;
38487;SDS011;57384;51.986;4.458;2022-12-10T19:41:21;15.77;;;4.35;;
38487;SDS011;57384;51.986;4.458;2022-12-10T19:44:06;17.50;;;5.63;;
38487;SDS011;57384;51.986;4.458;2022-12-10T19:46:50;14.27;;;4.03;;
38487;SDS011;57384;51.986;4.458;2022-12-10T19:49:34;15.30;;;4.70;;
38487;SDS011;57384;51.986;4.458;2022-12-10T19:52:18;16.05;;;4.55;;
38487;SDS011;57384;51.986;4.458;2022-12-10T19:55:02;18.55;;;6.35;;
38487;SDS011;57384;51.986;4.458;2022-12-10T19:57:47;16.35;;;4.93;;
38487;SDS011;57384;51.986;4.458;2022-12-10T20:00:34;22.77;;;6.40;;
38487;SDS011;57384;51.986;4.458;2022-12-10T20:03:18;16.23;;;5.63;;
38487;SDS011;57384;51.986;4.458;2022-12-10T20:06:04;16.63;;;6.40;;
38487;SDS011;57384;51.986;4.458;2022-12-10T20:08:56;12.07;;;4.93;;
38487;SDS011;57384;51.986;4.458;2022-12-10T20:11:44;18.38;;;6.18;;
38487;SDS011;57384;51.986;4.458;2022-12-10T20:14:31;16.85;;;5.30;;
38487;SDS011;57384;51.986;4.458;2022-12-10T20:17:15;19.23;;;6.82;;
38487;SDS011;57384;51.986;4.458;2022-12-10T20:20:00;18.92;;;5.38;;
38487;SDS011;57384;51.986;4.458;2022-12-10T20:22:45;17.23;;;5.50;;
38487;SDS011;57384;51.986;4.458;2022-12-10T20:25:29;18.02;;;5.47;;
38487;SDS011;57384;51.986;4.458;2022-12-10T20:28:15;18.50;;;6.38;;
38487;SDS011;57384;51.986;4.458;2022-12-10T20:31:00;16.30;;;5.55;;
38487;SDS011;57384;51.986;4.458;2022-12-10T20:33:44;13.68;;;3.40;;
38487;SDS011;57384;51.986;4.458;2022-12-10T20:36:29;14.55;;;5.07;;
38487;SDS011;57384;51.986;4.458;2022-12-10T20:39:18;15.75;;;5.78;;
38487;SDS011;57384;51.986;4.458;2022-12-10T20:42:10;14.63;;;4.95;;
38487;SDS011;57384;51.986;4.458;2022-12-10T20:44:54;22.13;;;6.57;;
38487;SDS011;57384;51.986;4.458;2022-12-10T20:47:43;12.27;;;4.88;;
38487;SDS011;57384;51.986;4.458;2022-12-10T20:50:40;19.08;;;6.13;;
38487;SDS011;57384;51.986;4.458;2022-12-10T20:53:24;14.65;;;5.40;;
38487;SDS011;57384;51.986;4.458;2022-12-10T20:59:33;13.05;;;4.82;;
38487;SDS011;57384;51.986;4.458;2022-12-10T21:02:17;13.68;;;4.93;;
38487;SDS011;57384;51.986;4.458;2022-12-10T21:05:07;10.18;;;4.18;;
38487;SDS011;57384;51.986;4.458;2022-12-10T21:08:08;20.90;;;5.53;;
38487;SDS011;57384;51.986;4.458;2022-12-10T21:11:15;17.95;;;6.15;;
38487;SDS011;57384;51.986;4.458;2022-12-10T21:14:23;16.63;;;5.63;;
38487;SDS011;57384;51.986;4.458;2022-12-10T21:23:37;16.38;;;5.47;;
38487;SDS011;57384;51.986;4.458;2022-12-10T21:26:21;17.33;;;6.20;;
38487;SDS011;57384;51.986;4.458;2022-12-10T21:29:18;14.02;;;5.00;;
38487;SDS011;57384;51.986;4.458;2022-12-10T21:32:06;20.90;;;5.32;;
38487;SDS011;57384;51.986;4.458;2022-12-10T21:34:56;23.52;;;6.22;;
38487;SDS011;57384;51.986;4.458;2022-12-10T21:37:55;18.67;;;5.72;;
38487;SDS011;57384;51.986;4.458;2022-12-10T21:40:53;22.55;;;5.70;;
38487;SDS011;57384;51.986;4.458;2022-12-10T21:44:05;14.90;;;5.43;;
38487;SDS011;57384;51.986;4.458;2022-12-10T21:47:17;20.10;;;6.40;;
38487;SDS011;57384;51.986;4.458;2022-12-10T21:50:09;18.73;;;5.28;;
38487;SDS011;57384;51.986;4.458;2022-12-10T21:53:09;13.73;;;4.95;;
38487;SDS011;57384;51.986;4.458;2022-12-10T21:56:03;17.30;;;5.00;;
38487;SDS011;57384;51.986;4.458;2022-12-10T21:59:00;17.55;;;5.32;;
38487;SDS011;57384;51.986;4.458;2022-12-10T22:02:08;13.55;;;4.72;;
38487;SDS011;57384;51.986;4.458;2022-12-10T22:05:11;15.77;;;4.50;;
38487;SDS011;57384;51.986;4.458;2022-12-10T22:07:59;17.55;;;4.75;;
38487;SDS011;57384;51.986;4.458;2022-12-10T22:10:52;18.75;;;5.28;;
38487;SDS011;57384;51.986;4.458;2022-12-10T22:13:38;12.82;;;4.25;;
38487;SDS011;57384;51.986;4.458;2022-12-10T22:16:25;15.90;;;5.93;;
38487;SDS011;57384;51.986;4.458;2022-12-10T22:19:12;21.40;;;5.80;;
38487;SDS011;57384;51.986;4.458;2022-12-10T22:25:13;13.85;;;4.57;;
38487;SDS011;57384;51.986;4.458;2022-12-10T22:31:18;20.23;;;5.32;;
38487;SDS011;57384;51.986;4.458;2022-12-10T22:34:14;15.93;;;5.30;;
38487;SDS011;57384;51.986;4.458;2022-12-10T22:37:09;20.38;;;5.43;;
38487;SDS011;57384;51.986;4.458;2022-12-10T22:40:17;15.95;;;5.63;;
38487;SDS011;57384;51.986;4.458;2022-12-10T22:43:06;26.63;;;8.20;;
38487;SDS011;57384;51.986;4.458;2022-12-10T22:46:34;18.08;;;6.85;;
38487;SDS011;57384;51.986;4.458;2022-12-10T22:49:27;19.98;;;6.90;;
38487;SDS011;57384;51.986;4.458;2022-12-10T23:02:21;18.80;;;6.25;;
38487;SDS011;57384;51.986;4.458;2022-12-10T23:05:23;17.15;;;5.75;;
38487;SDS011;57384;51.986;4.458;2022-12-10T23:08:17;15.63;;;5.68;;
38487;SDS011;57384;51.986;4.458;2022-12-10T23:14:02;17.58;;;5.30;;
38487;SDS011;57384;51.986;4.458;2022-12-10T23:16:49;12.75;;;3.55;;
38487;SDS011;57384;51.986;4.458;2022-12-10T23:19:33;13.68;;;4.30;;
38487;SDS011;57384;51.986;4.458;2022-12-10T23:22:20;15.05;;;5.13;;
38487;SDS011;57384;51.986;4.458;2022-12-10T23:25:27;17.70;;;5.40;;
38487;SDS011;57384;51.986;4.458;2022-12-10T23:28:11;18.15;;;5.70;;
38487;SDS011;57384;51.986;4.458;2022-12-10T23:30:57;13.90;;;4.32;;
38487;SDS011;57384;51.986;4.458;2022-12-10T23:33:47;16.65;;;6.45;;
38487;SDS011;57384;51.986;4.458;2022-12-10T23:36:34;21.77;;;5.00;;
38487;SDS011;57384;51.986;4.458;2022-12-10T23:39:21;20.30;;;6.45;;
38487;SDS011;57384;51.986;4.458;2022-12-10T23:42:06;15.30;;;4.78;;
38487;SDS011;57384;51.986;4.458;2022-12-10T23:44:53;17.85;;;5.70;;
38487;SDS011;57384;51.986;4.458;2022-12-10T23:47:38;13.30;;;5.15;;
38487;SDS011;57384;51.986;4.458;2022-12-10T23:50:22;19.42;;;5.13;;
38487;SDS011;57384;51.986;4.458;2022-12-10T23:53:06;15.77;;;5.72;;
38487;SDS011;57384;51.986;4.458;2022-12-10T23:55:51;19.38;;;6.03;;
38487;SDS011;57384;51.986;4.458;2022-12-10T23:58:41;16.95;;;5.75;;
